Terminal Aerodrome Forecast
Issued by NWS

Home | Current Version | Previous Version | Text Only | Print | Product List | Glossary On
Versions: 1 2 3 4 5 6 7 8 9 10 11 12 13 14 15 16 17 18 19 20 21 22 23 24 25 26 27 28
000
FTUS46 KMTR 302054 AAA
TAFSFO
TAF AMD
KSFO 302054Z 3021/3124 30015KT P6SM FEW009 SCT180
     FM310400 30008KT P6SM SCT015
     FM311100 27004KT P6SM OVC012
     FM311700 VRB05KT P6SM FEW010
     FM312200 31013KT P6SM SKC=

USA.gov is the U.S. government's official web portal to all federal, state and local government web resources and services.